createdAt,value
2023-05-25T04:24:58.788Z,28.61
2023-05-25T04:27:28.550Z,29.27
2023-05-25T04:29:56.202Z,30.06
2023-05-25T04:32:57.954Z,30.14
2023-05-25T04:35:50.808Z,30.07
2023-05-25T04:38:20.982Z,29.96
2023-05-25T04:40:48.502Z,30.38
2023-05-25T04:43:18.385Z,30.91
2023-05-25T04:45:47.659Z,31.19
2023-05-25T04:48:15.407Z,30.95
2023-05-25T04:50:43.198Z,30.87
2023-05-25T04:53:11.277Z,31.38
2023-05-25T04:55:40.180Z,30.64
2023-05-25T04:58:07.890Z,29.82
2023-05-25T05:00:37.042Z,28.94
2023-05-25T05:03:05.695Z,28.59
2023-05-25T05:05:33.344Z,28.53
2023-05-25T05:08:04.073Z,28.53
2023-05-25T21:03:39.836Z,13.67
2023-05-25T21:06:07.884Z,13.75
2023-05-25T21:08:35.583Z,13.82
2023-05-25T21:11:03.408Z,13.84
2023-05-25T21:13:30.823Z,14.02
2023-05-25T21:15:58.180Z,14.08
2023-05-25T21:18:25.957Z,14.14
2023-05-25T21:20:53.349Z,13.99
2023-05-25T21:23:20.811Z,14.27
2023-05-25T21:25:48.671Z,14.30
2023-05-25T21:28:16.490Z,14.34
2023-05-25T21:30:43.902Z,14.32
2023-05-25T21:33:11.715Z,14.33
2023-05-25T21:35:39.189Z,14.35
2023-05-25T21:38:06.966Z,14.34
2023-05-25T21:40:34.817Z,14.36
2023-05-25T21:43:02.538Z,14.14
2023-05-25T21:45:30.136Z,14.28
2023-05-25T21:47:58.015Z,14.14
2023-05-25T21:50:26.016Z,14.25
2023-05-25T21:52:53.766Z,14.28
2023-05-25T21:55:21.949Z,14.28
2023-05-25T21:57:49.354Z,14.29
2023-05-25T22:00:17.424Z,14.16
2023-05-25T22:02:44.895Z,14.18
2023-05-25T22:05:12.561Z,14.35
2023-05-25T22:07:40.460Z,14.31
2023-05-25T22:10:08.728Z,14.35
2023-05-25T22:12:36.389Z,14.33
2023-05-25T22:15:05.447Z,14.31
2023-05-25T22:17:33.485Z,14.13
2023-05-25T22:20:07.805Z,14.31
2023-05-25T22:22:37.826Z,14.29
2023-05-25T22:25:05.677Z,14.11
2023-05-25T22:27:33.786Z,14.27
2023-05-25T22:30:02.281Z,14.27
2023-05-25T22:32:31.480Z,14.25
2023-05-25T22:34:58.882Z,14.22
2023-05-25T22:37:26.827Z,14.19
2023-05-25T22:39:54.346Z,14.17
2023-05-25T22:42:22.105Z,14.07
2023-05-25T22:44:51.475Z,14.19
2023-05-25T22:47:19.086Z,14.17
2023-05-25T22:49:46.570Z,14.14
2023-05-25T22:52:14.555Z,14.03
2023-05-25T22:54:42.318Z,14.15
2023-05-25T22:57:10.069Z,14.16
2023-05-25T22:59:37.703Z,14.13
2023-05-25T23:02:05.903Z,13.99
2023-05-25T23:04:35.682Z,14.10
2023-05-25T23:07:03.555Z,14.07
2023-05-25T23:09:31.174Z,13.96
2023-05-25T23:11:58.790Z,13.95
2023-05-25T23:14:28.500Z,13.93
2023-05-25T23:16:56.434Z,13.89
2023-05-25T23:19:25.968Z,13.66
2023-05-25T23:21:54.891Z,13.87
2023-05-25T23:24:22.486Z,13.90
2023-05-25T23:26:50.078Z,13.93
2023-05-25T23:29:18.000Z,13.94
2023-05-25T23:31:45.686Z,13.95
2023-05-25T23:34:13.210Z,13.94
2023-05-25T23:36:40.884Z,13.95
2023-05-25T23:39:09.190Z,13.93
2023-05-25T23:41:36.647Z,13.89
2023-05-25T23:44:04.086Z,13.86
2023-05-25T23:46:31.965Z,13.85
2023-05-25T23:48:59.692Z,13.89
2023-05-25T23:51:27.362Z,13.83
2023-05-25T23:53:54.862Z,13.64
2023-05-25T23:56:22.734Z,13.74
2023-05-25T23:58:50.507Z,13.72
